SARC/CNQ METAR and TAF weather

Enter ICAO airport designator
Station Type Date Time Source
SARC METAR 2021/09/20 05:00 UTC NOAA

SARC 200500Z 02006KT 6000 NSC 28/21 Q1003


Station Type Date Time Source
SARC Decoded METAR 2021/09/20 05:00 UTC NOAA

Corrientes Aero., Argentina (SARC) 27-27S 058-46W 62M
Sep 20, 2021 - 01:00 AM EDT / 2021.09.20 0500 UTC
Wind: from the NNE (020 degrees) at 7 MPH (6 KT):0
Visibility: 3 mile(s):0
Temperature: 82 F (28 C)
Dew Point: 69 F (21 C)
Relative Humidity: 65%
Pressure (altimeter): 29.62 in. Hg (1003 hPa)
ob: SARC 200500Z 02006KT 6000 NSC 28/21 Q1003
cycle: 5

Station Type Date Time Source
SARC TAF 2021/09/06 10:14 UTC NOAA

TAF
AMD SARC 060945Z 0610/0706 09005KT CAVOK TX30/0619Z TN17/0610Z PROB40 0611/0621 5000 TSRA SCT025 FEW050CB BKN050

Example: see airport list